Time;durP1;ratioP1;P1;durP2;ratioP2;P2;SDS_P1;SDS_P2;PMS_P1;PMS_P2;Temp;Humidity;BMP_temperature;BMP_pressure;BME280_temperature;BME280_humidity;BME280_pressure;Samples;Min_cycle;Max_cycle;Signal;HPM_P1;HPM_P2
2023/05/19 00:01:42;;;;;;;4.72;2.00;;;16.60;51.40;;;;;;4961716;28;20473;-84
2023/05/19 00:04:11;;;;;;;5.82;2.40;;;16.60;51.50;;;;;;4963479;28;20077;-85
2023/05/19 00:06:37;;;;;;;4.28;2.00;;;16.60;51.60;;;;;;4959275;28;20027;-85
2023/05/19 00:09:08;;;;;;;4.38;1.90;;;16.60;51.70;;;;;;4978144;28;20100;-86
2023/05/19 00:11:36;;;;;;;3.50;1.67;;;16.50;51.60;;;;;;4968691;28;20045;-84
2023/05/19 00:14:03;;;;;;;5.22;2.35;;;16.50;51.70;;;;;;4962135;28;20126;-83
2023/05/19 00:16:30;;;;;;;3.20;2.28;;;16.50;51.80;;;;;;4961529;28;20074;-84
2023/05/19 00:18:58;;;;;;;4.32;2.20;;;16.40;51.60;;;;;;4966322;28;20256;-82
2023/05/19 00:21:25;;;;;;;3.83;2.03;;;16.40;51.70;;;;;;4967403;28;20040;-84
2023/05/19 00:23:51;;;;;;;4.10;2.15;;;16.40;51.80;;;;;;4965395;28;20114;-83
2023/05/19 00:26:17;;;;;;;4.25;2.00;;;16.40;51.90;;;;;;4944165;28;20452;-82
2023/05/19 00:28:53;;;;;;;3.10;1.83;;;16.40;52.00;;;;;;4961021;28;20894;-83
2023/05/19 00:31:19;;;;;;;5.25;2.55;;;16.40;52.10;;;;;;4960384;28;20027;-83
2023/05/19 00:33:45;;;;;;;7.25;2.17;;;16.30;52.20;;;;;;4963852;28;20038;-83
2023/05/19 00:36:11;;;;;;;3.80;2.00;;;16.30;52.10;;;;;;4948369;28;20399;-83
2023/05/19 00:38:38;;;;;;;4.05;2.30;;;16.20;52.00;;;;;;4954517;28;20034;-84
2023/05/19 00:41:05;;;;;;;4.78;2.53;;;16.20;52.10;;;;;;4956279;28;20121;-83
2023/05/19 00:43:34;;;;;;;4.07;2.22;;;16.20;52.20;;;;;;4949616;28;20119;-84
2023/05/19 00:46:01;;;;;;;5.25;2.35;;;16.20;52.30;;;;;;4962578;28;20049;-84
2023/05/19 00:48:27;;;;;;;4.25;1.70;;;16.10;52.20;;;;;;4963179;28;20049;-84
2023/05/19 00:51:00;;;;;;;2.67;1.80;;;16.10;52.30;;;;;;4974939;28;20046;-83
2023/05/19 00:53:28;;;;;;;3.47;2.13;;;16.10;52.40;;;;;;4960944;28;20497;-84
2023/05/19 00:55:54;;;;;;;5.15;2.78;;;16.10;52.50;;;;;;4937427;28;20276;-84
2023/05/19 00:58:20;;;;;;;3.75;2.40;;;16.10;52.60;;;;;;4962586;28;20473;-83
2023/05/19 01:00:46;;;;;;;4.43;1.80;;;16.00;52.50;;;;;;4960673;28;20379;-86
2023/05/19 01:03:12;;;;;;;3.95;2.15;;;16.00;52.60;;;;;;4951954;28;20418;-85
2023/05/19 01:05:44;;;;;;;3.85;2.53;;;16.00;52.70;;;;;;4960179;28;20035;-84
2023/05/19 01:08:11;;;;;;;2.92;1.80;;;16.00;52.80;;;;;;4968905;28;20049;-84
2023/05/19 01:10:37;;;;;;;3.28;1.65;;;15.90;52.70;;;;;;4970786;28;20027;-82
2023/05/19 01:13:05;;;;;;;3.40;2.35;;;15.90;52.80;;;;;;4961224;28;20102;-84
2023/05/19 01:16:22;;;;;;;2.38;1.83;;;15.90;52.80;;;;;;4960626;28;20120;-82
2023/05/19 01:18:55;;;;;;;4.82;2.50;;;15.90;53.10;;;;;;4948503;28;20049;-83
2023/05/19 01:21:30;;;;;;;3.63;2.17;;;15.90;52.90;;;;;;4971961;28;20109;-82
2023/05/19 01:24:21;;;;;;;3.05;1.80;;;15.90;52.90;;;;;;4971301;28;20438;-82
2023/05/19 01:27:08;;;;;;;5.38;3.03;;;15.80;53.00;;;;;;4963396;28;20026;-82
2023/05/19 01:29:45;;;;;;;3.83;2.30;;;15.80;52.90;;;;;;4969301;28;20355;-82
2023/05/19 01:32:12;;;;;;;4.78;1.95;;;15.80;53.10;;;;;;4958288;28;20086;-82
2023/05/19 01:34:42;;;;;;;3.92;1.90;;;15.80;53.00;;;;;;4961375;28;20545;-84
2023/05/19 01:37:09;;;;;;;4.60;2.03;;;15.80;53.80;;;;;;4963637;28;20077;-83
2023/05/19 01:39:36;;;;;;;4.38;2.78;;;15.80;53.20;;;;;;4962944;28;20062;-85
2023/05/19 01:42:03;;;;;;;4.18;2.35;;;15.70;53.20;;;;;;4972345;28;20370;-83
2023/05/19 01:44:31;;;;;;;3.72;2.20;;;15.70;53.30;;;;;;4948953;28;20153;-84
2023/05/19 01:46:58;;;;;;;3.83;2.10;;;15.70;53.30;;;;;;4971085;28;20078;-82
2023/05/19 01:49:24;;;;;;;4.93;2.20;;;15.60;53.20;;;;;;4970977;28;20125;-83
2023/05/19 01:51:49;;;;;;;4.35;2.22;;;15.60;53.30;;;;;;4983372;28;20580;-82
2023/05/19 01:54:16;;;;;;;3.22;2.00;;;15.60;53.40;;;;;;4981696;28;20444;-83
2023/05/19 01:57:16;;;;;;;4.00;2.20;;;15.60;53.50;;;;;;4979959;28;20490;-83
2023/05/19 02:00:11;;;;;;;4.03;2.45;;;15.60;53.70;;;;;;4958233;28;20027;-83
2023/05/19 02:02:48;;;;;;;5.05;2.75;;;15.60;53.70;;;;;;4973078;28;20036;-83
2023/05/19 02:05:42;;;;;;;2.58;1.88;;;15.50;53.40;;;;;;4980274;28;20048;-83
2023/05/19 02:08:18;;;;;;;3.88;2.33;;;15.50;53.60;;;;;;4976234;28;20042;-82
2023/05/19 02:10:50;;;;;;;3.75;2.38;;;15.50;53.70;;;;;;4969274;28;20893;-81
2023/05/19 02:13:20;;;;;;;;;;;15.50;53.80;;;;;;4967022;28;20035;-82
2023/05/19 02:15:47;;;;;;;3.97;2.70;;;15.50;53.70;;;;;;4963769;28;20384;-83
2023/05/19 02:18:16;;;;;;;4.68;2.53;;;15.40;53.30;;;;;;4967122;28;20034;-84
2023/05/19 02:20:43;;;;;;;3.28;2.30;;;15.40;53.40;;;;;;4964287;28;20034;-83
2023/05/19 02:23:09;;;;;;;5.88;2.50;;;15.40;53.60;;;;;;4968455;28;20037;-83
2023/05/19 02:25:35;;;;;;;4.30;2.60;;;15.40;54.30;;;;;;4965252;28;20548;-82
2023/05/19 02:28:01;;;;;;;4.85;2.63;;;15.30;53.60;;;;;;4962019;28;20048;-83
2023/05/19 02:30:30;;;;;;;4.07;2.50;;;15.30;53.70;;;;;;4965504;28;20031;-82
2023/05/19 02:32:59;;;;;;;4.30;2.83;;;15.30;53.80;;;;;;4964619;28;20039;-82
2023/05/19 02:35:25;;;;;;;4.93;2.85;;;15.30;53.90;;;;;;4962645;28;20039;-82
2023/05/19 02:37:51;;;;;;;3.40;2.67;;;15.30;54.00;;;;;;4970268;28;20389;-82
2023/05/19 02:40:17;;;;;;;3.67;2.60;;;15.20;53.90;;;;;;4970728;28;20035;-82
2023/05/19 02:42:43;;;;;;;4.63;2.58;;;15.20;54.00;;;;;;4969451;28;20031;-82
2023/05/19 02:45:09;;;;;;;3.80;2.28;;;15.10;53.90;;;;;;4980217;28;20050;-83
2023/05/19 02:47:38;;;;;;;4.68;2.88;;;15.10;54.00;;;;;;4969734;28;20101;-82
2023/05/19 02:50:06;;;;;;;3.80;2.92;;;15.10;54.00;;;;;;4969369;28;20042;-81
2023/05/19 02:52:32;;;;;;;3.97;2.67;;;15.10;54.10;;;;;;4965985;28;20035;-79
2023/05/19 02:54:58;;;;;;;4.15;3.25;;;15.10;54.20;;;;;;4960332;28;20068;-82
2023/05/19 02:57:25;;;;;;;2.97;2.47;;;15.00;54.10;;;;;;4967756;28;20108;-82
2023/05/19 02:59:51;;;;;;;3.85;2.70;;;15.00;54.20;;;;;;4985043;28;20594;-84
2023/05/19 03:02:17;;;;;;;4.45;2.78;;;15.00;54.20;;;;;;4954157;28;20394;-83
2023/05/19 03:04:44;;;;;;;3.67;2.67;;;14.90;54.20;;;;;;4959817;28;20035;-81
2023/05/19 03:07:12;;;;;;;3.13;2.50;;;14.90;54.20;;;;;;4971526;28;20505;-83
2023/05/19 03:09:38;;;;;;;3.90;2.63;;;14.90;55.00;;;;;;4965624;28;20135;-83
2023/05/19 03:12:06;;;;;;;5.35;3.05;;;14.80;54.20;;;;;;4965255;28;20027;-83
2023/05/19 03:14:33;;;;;;;4.40;3.00;;;14.80;54.30;;;;;;4967295;28;20067;-82
2023/05/19 03:17:00;;;;;;;3.17;2.55;;;14.80;54.40;;;;;;4968243;28;20038;-83
2023/05/19 03:19:26;;;;;;;3.75;3.35;;;14.80;54.40;;;;;;4955364;28;20082;-83
2023/05/19 03:21:52;;;;;;;4.82;2.72;;;14.70;54.30;;;;;;4966099;28;20239;-83
2023/05/19 03:24:21;;;;;;;3.38;2.90;;;14.70;54.40;;;;;;4963077;28;20034;-83
2023/05/19 03:26:47;;;;;;;4.78;2.95;;;14.70;54.40;;;;;;4967448;28;20046;-81
2023/05/19 03:29:13;;;;;;;5.43;2.90;;;14.70;54.50;;;;;;4966241;28;20031;-83
2023/05/19 03:31:39;;;;;;;4.53;2.60;;;14.60;54.40;;;;;;4982265;28;20042;-87
2023/05/19 03:34:04;;;;;;;4.35;3.10;;;14.60;54.40;;;;;;4967733;28;20030;-82
2023/05/19 03:36:30;;;;;;;4.68;2.88;;;14.60;54.50;;;;;;4957137;28;20179;-83
2023/05/19 03:39:00;;;;;;;4.80;2.97;;;14.60;54.50;;;;;;4954388;28;20053;-82
2023/05/19 03:41:26;;;;;;;6.13;3.00;;;14.60;54.60;;;;;;4972923;28;20041;-83
2023/05/19 03:43:52;;;;;;;4.10;2.70;;;14.60;54.60;;;;;;4969236;28;20034;-83
2023/05/19 03:46:18;;;;;;;3.08;2.78;;;14.50;54.50;;;;;;4955824;28;20101;-83
2023/05/19 03:49:01;;;;;;;4.57;3.30;;;14.40;54.30;;;;;;4964024;28;20038;-84
2023/05/19 03:51:39;;;;;;;4.93;2.90;;;14.50;54.60;;;;;;4961516;28;20113;-84
2023/05/19 03:54:19;;;;;;;4.07;3.33;;;14.50;54.60;;;;;;4967694;28;20069;-84
2023/05/19 03:56:45;;;;;;;3.40;3.00;;;14.40;54.50;;;;;;4967264;28;20045;-84
2023/05/19 03:59:11;;;;;;;3.50;2.90;;;14.40;54.60;;;;;;4966681;28;20031;-85
2023/05/19 04:01:37;;;;;;;3.72;3.28;;;14.30;54.40;;;;;;4945880;28;20082;-84
2023/05/19 04:04:03;;;;;;;4.63;3.28;;;14.30;54.50;;;;;;4967537;28;20131;-84
2023/05/19 04:06:29;;;;;;;5.88;3.33;;;14.30;54.60;;;;;;4983797;28;20047;-84
2023/05/19 04:08:55;;;;;;;4.13;2.90;;;14.30;54.70;;;;;;4960372;28;20042;-85
2023/05/19 04:11:21;;;;;;;3.35;3.00;;;14.20;54.50;;;;;;4968057;28;20417;-84
2023/05/19 04:13:47;;;;;;;5.40;3.25;;;14.20;54.60;;;;;;4959124;28;20114;-84
2023/05/19 04:16:13;;;;;;;4.35;3.70;;;14.20;54.70;;;;;;4968422;28;20079;-85
2023/05/19 04:18:41;;;;;;;3.83;3.50;;;14.10;54.60;;;;;;4966743;28;20042;-85
2023/05/19 04:21:07;;;;;;;4.32;3.92;;;14.10;54.70;;;;;;4967919;28;20073;-84
2023/05/19 04:23:33;;;;;;;3.92;3.53;;;14.10;54.70;;;;;;4968218;28;20454;-84
2023/05/19 04:26:00;;;;;;;4.82;3.40;;;14.10;54.80;;;;;;4962925;28;20043;-82
2023/05/19 04:28:26;;;;;;;3.70;3.40;;;14.10;54.90;;;;;;4982481;28;20355;-83
2023/05/19 04:30:52;;;;;;;6.53;3.72;;;14.10;54.90;;;;;;4961856;28;20098;-83
2023/05/19 04:33:18;;;;;;;4.55;3.88;;;14.00;54.70;;;;;;4972625;28;20034;-84
2023/05/19 04:35:45;;;;;;;5.13;3.58;;;14.00;54.70;;;;;;4985534;28;20277;-82
2023/05/19 04:38:12;;;;;;;4.68;3.83;;;14.00;54.80;;;;;;4967278;28;20023;-81
2023/05/19 04:40:41;;;;;;;5.07;3.28;;;14.00;54.80;;;;;;4979191;28;20026;-81
2023/05/19 04:43:08;;;;;;;4.30;3.53;;;14.00;54.80;;;;;;4963828;28;20442;-81
2023/05/19 04:45:36;;;;;;;5.20;3.63;;;14.00;54.80;;;;;;4970943;28;20557;-82
2023/05/19 04:48:03;;;;;;;6.78;4.65;;;14.00;54.80;;;;;;4961013;28;20182;-81
2023/05/19 04:50:31;;;;;;;4.55;3.70;;;14.00;54.70;;;;;;4970535;28;20044;-80
2023/05/19 04:52:58;;;;;;;4.65;3.45;;;14.00;54.80;;;;;;4974014;28;20038;-79
2023/05/19 04:55:24;;;;;;;3.95;3.55;;;14.00;54.80;;;;;;4968036;28;20033;-82
2023/05/19 04:57:51;;;;;;;4.57;3.17;;;14.00;54.70;;;;;;4969964;28;20490;-82
2023/05/19 05:00:19;;;;;;;8.63;3.83;;;14.00;54.70;;;;;;4972789;28;20034;-82
2023/05/19 05:02:56;;;;;;;3.78;3.40;;;14.00;54.70;;;;;;4946946;28;20026;-80
2023/05/19 05:05:22;;;;;;;4.15;3.65;;;14.00;54.70;;;;;;4965858;28;20810;-80
2023/05/19 05:07:50;;;;;;;4.28;3.00;;;14.00;54.70;;;;;;4977294;28;20065;-80
2023/05/19 05:10:16;;;;;;;3.80;2.83;;;14.00;54.80;;;;;;4959964;28;20247;-83
2023/05/19 05:12:42;;;;;;;5.13;3.67;;;14.00;54.80;;;;;;4963455;28;20022;-86
2023/05/19 05:15:09;;;;;;;3.67;3.10;;;14.00;54.80;;;;;;4957307;28;20067;-85
2023/05/19 05:17:37;;;;;;;3.10;2.78;;;14.00;54.80;;;;;;4964157;28;20034;-84
2023/05/19 05:20:05;;;;;;;3.55;2.95;;;14.00;54.70;;;;;;4959147;28;20041;-84
2023/05/19 05:22:32;;;;;;;4.07;3.53;;;14.00;54.70;;;;;;4961252;28;20434;-89
2023/05/19 05:24:58;;;;;;;4.68;3.58;;;14.10;54.80;;;;;;4959713;28;20514;-88
2023/05/19 05:27:24;;;;;;;4.95;3.08;;;14.10;54.70;;;;;;4948084;28;20440;-87
2023/05/19 05:29:51;;;;;;;5.47;3.55;;;14.10;54.70;;;;;;4959264;28;20027;-86
2023/05/19 05:32:19;;;;;;;3.45;3.15;;;14.20;54.80;;;;;;4975308;28;20548;-86
2023/05/19 05:34:45;;;;;;;4.05;3.03;;;14.20;54.70;;;;;;4960066;28;20068;-89
2023/05/19 05:37:11;;;;;;;4.25;3.20;;;14.30;54.80;;;;;;4955209;28;20355;-88
2023/05/19 05:39:37;;;;;;;6.43;3.72;;;14.30;54.70;;;;;;4977081;28;20027;-88
2023/05/19 05:42:04;;;;;;;6.13;4.38;;;14.40;54.80;;;;;;4964168;28;20045;-91
2023/05/19 05:44:30;;;;;;;3.70;3.40;;;14.50;54.90;;;;;;4964633;28;20031;-90
2023/05/19 05:46:57;;;;;;;5.30;3.75;;;14.60;55.00;;;;;;4958085;28;20128;-88
2023/05/19 05:49:23;;;;;;;4.93;3.58;;;14.70;55.00;;;;;;4960771;28;20081;-84
2023/05/19 05:51:50;;;;;;;6.68;3.92;;;14.80;55.50;;;;;;4958076;28;20601;-80
2023/05/19 05:54:20;;;;;;;4.97;4.20;;;15.00;56.80;;;;;;4942498;28;20628;-79
2023/05/19 05:56:47;;;;;;;5.95;3.65;;;15.30;57.80;;;;;;4957083;28;20166;-81
2023/05/19 05:59:14;;;;;;;5.60;4.05;;;15.50;58.30;;;;;;4961535;28;20042;-82
2023/05/19 06:01:42;;;;;;;6.55;3.97;;;15.80;58.70;;;;;;4956710;28;20058;-82
2023/05/19 06:04:09;;;;;;;4.18;3.50;;;16.00;58.80;;;;;;4970432;28;20153;-81
2023/05/19 06:06:36;;;;;;;4.80;4.00;;;16.20;58.90;;;;;;4973213;28;20077;-83
2023/05/19 06:09:04;;;;;;;6.03;3.92;;;16.40;59.00;;;;;;4958907;28;20030;-80
2023/05/19 06:11:30;;;;;;;5.05;4.00;;;16.70;59.20;;;;;;4956230;28;20046;-82
2023/05/19 06:13:57;;;;;;;5.28;3.50;;;16.90;59.20;;;;;;4971013;28;20039;-82
2023/05/19 06:16:54;;;;;;;3.92;3.42;;;17.20;59.30;;;;;;4959095;28;20467;-81
2023/05/19 06:19:20;;;;;;;4.40;3.80;;;17.60;59.30;;;;;;4963566;28;20117;-80
2023/05/19 06:21:47;;;;;;;5.93;4.40;;;17.90;59.20;;;;;;4962068;28;20026;-86
2023/05/19 06:24:14;;;;;;;4.78;3.50;;;18.30;59.20;;;;;;4953354;28;20039;-86
2023/05/19 06:26:41;;;;;;;5.20;3.80;;;18.70;59.10;;;;;;4953526;28;20043;-83
2023/05/19 06:29:06;;;;;;;4.75;3.50;;;19.10;58.90;;;;;;4986160;28;20034;-84
2023/05/19 06:31:32;;;;;;;5.57;4.07;;;19.50;58.70;;;;;;4963841;28;20031;-87
2023/05/19 06:34:09;;;;;;;5.78;4.63;;;19.80;58.40;;;;;;4963443;28;20600;-84
2023/05/19 06:36:35;;;;;;;5.43;3.80;;;20.20;58.20;;;;;;4971152;28;20436;-85
2023/05/19 06:39:01;;;;;;;5.65;3.63;;;20.60;58.20;;;;;;4965333;28;20035;-83
2023/05/19 06:41:28;;;;;;;5.07;3.40;;;20.80;57.90;;;;;;4963417;28;20094;-85
2023/05/19 06:43:55;;;;;;;4.38;3.58;;;21.10;57.80;;;;;;4968222;28;20035;-84
2023/05/19 06:46:21;;;;;;;5.18;3.83;;;21.40;57.70;;;;;;4957972;28;20536;-85
2023/05/19 06:48:47;;;;;;;4.03;3.60;;;21.70;57.70;;;;;;4969185;28;20031;-84
2023/05/19 06:51:20;;;;;;;6.63;5.03;;;22.00;57.60;;;;;;4960445;28;20042;-85
2023/05/19 06:53:48;;;;;;;7.07;4.28;;;22.30;57.30;;;;;;4966163;28;20109;-84
2023/05/19 06:56:15;;;;;;;5.55;3.83;;;22.70;57.00;;;;;;4968888;28;20037;-83
2023/05/19 06:58:41;;;;;;;5.22;3.83;;;23.10;56.50;;;;;;4964972;28;20038;-86
2023/05/19 07:01:07;;;;;;;3.85;3.55;;;23.50;56.10;;;;;;4968508;28;20218;-84
2023/05/19 07:03:40;;;;;;;8.93;3.90;;;23.90;55.70;;;;;;4969799;28;20126;-86
2023/05/19 07:06:07;;;;;;;7.05;3.80;;;24.30;55.30;;;;;;4968195;28;20648;-83
2023/05/19 07:08:35;;;;;;;4.45;3.90;;;24.60;54.80;;;;;;4968904;28;20073;-82
2023/05/19 07:11:03;;;;;;;6.30;3.97;;;25.00;54.50;;;;;;4966982;28;20065;-83
2023/05/19 07:13:31;;;;;;;6.32;3.35;;;25.40;53.70;;;;;;4969535;28;20468;-83
2023/05/19 07:15:57;;;;;;;4.63;4.18;;;25.70;53.00;;;;;;4969123;28;20037;-86
2023/05/19 07:18:24;;;;;;;4.90;3.53;;;26.00;52.40;;;;;;4965330;28;20038;-88
2023/05/19 07:20:52;;;;;;;7.68;3.95;;;26.30;51.90;;;;;;4967608;28;20607;-83
2023/05/19 07:23:19;;;;;;;4.65;4.05;;;26.40;51.30;;;;;;4962781;28;20352;-90
2023/05/19 07:25:46;;;;;;;8.13;3.50;;;26.50;51.00;;;;;;4956615;28;20042;-89
2023/05/19 07:28:12;;;;;;;5.85;3.90;;;26.60;50.70;;;;;;4964624;28;20034;-91
2023/05/19 07:30:38;;;;;;;5.78;3.72;;;26.70;50.40;;;;;;4963739;28;20030;-89
2023/05/19 07:33:04;;;;;;;4.70;4.10;;;26.80;50.40;;;;;;4971504;28;20158;-86
2023/05/19 07:35:30;;;;;;;6.72;3.47;;;26.80;50.20;;;;;;4964742;28;20062;-91
2023/05/19 07:37:59;;;;;;;6.20;4.15;;;26.90;50.10;;;;;;4970107;28;20089;-89
2023/05/19 07:40:25;;;;;;;6.20;3.28;;;27.10;49.90;;;;;;4965507;28;20145;-86
2023/05/19 07:42:51;;;;;;;4.80;3.53;;;27.50;49.20;;;;;;4960611;28;20036;-86
2023/05/19 07:45:17;;;;;;;7.63;3.90;;;27.90;48.20;;;;;;4951674;28;20034;-86
2023/05/19 07:47:43;;;;;;;4.95;3.60;;;28.40;47.50;;;;;;4958642;28;20106;-85
2023/05/19 07:50:10;;;;;;;5.28;3.70;;;28.60;46.90;;;;;;4965819;28;20527;-87
2023/05/19 07:52:35;;;;;;;3.53;3.22;;;28.80;46.60;;;;;;4959922;28;20173;-77
2023/05/19 07:55:01;;;;;;;6.22;3.00;;;28.80;46.40;;;;;;4964093;28;20464;-78
2023/05/19 07:57:27;;;;;;;3.40;2.88;;;28.80;46.30;;;;;;4963900;28;20370;-79
2023/05/19 07:59:53;;;;;;;6.68;3.60;;;28.90;46.30;;;;;;4963499;28;20343;-80
2023/05/19 08:02:19;;;;;;;5.13;3.47;;;29.00;46.00;;;;;;4966277;28;20031;-85
2023/05/19 08:04:47;;;;;;;4.88;3.25;;;29.00;46.40;;;;;;4972834;28;20029;-81
2023/05/19 08:07:13;;;;;;;4.72;3.40;;;28.90;45.50;;;;;;4966643;28;20687;-77
2023/05/19 08:09:39;;;;;;;4.47;3.17;;;28.80;45.50;;;;;;4972727;28;20091;-78
2023/05/19 08:12:05;;;;;;;4.78;2.58;;;28.60;45.60;;;;;;4963364;28;20508;-78
2023/05/19 08:14:32;;;;;;;7.00;3.03;;;28.30;45.60;;;;;;4970707;28;20038;-78
2023/05/19 08:16:58;;;;;;;7.47;2.97;;;28.10;45.70;;;;;;4969181;28;20039;-79
2023/05/19 08:19:24;;;;;;;4.22;3.40;;;27.90;46.10;;;;;;4968876;28;20050;-84
2023/05/19 08:21:50;;;;;;;7.20;3.25;;;27.70;46.20;;;;;;4962699;28;20035;-80
2023/05/19 08:24:16;;;;;;;5.05;3.22;;;27.50;46.20;;;;;;4968437;28;20494;-80
2023/05/19 08:26:43;;;;;;;5.78;3.60;;;27.30;46.40;;;;;;4966481;28;20057;-78
2023/05/19 08:29:08;;;;;;;5.47;3.10;;;27.20;46.50;;;;;;4966987;28;20388;-78
2023/05/19 08:31:34;;;;;;;5.18;2.78;;;27.00;46.60;;;;;;4959660;28;20227;-81
2023/05/19 08:34:00;;;;;;;4.32;2.97;;;26.80;46.70;;;;;;4964693;28;20521;-77
2023/05/19 08:36:27;;;;;;;4.75;3.08;;;26.70;46.80;;;;;;4966625;28;20038;-78
2023/05/19 08:38:53;;;;;;;4.72;3.83;;;26.60;46.90;;;;;;4961238;28;20039;-77
2023/05/19 08:41:20;;;;;;;3.85;3.17;;;26.60;47.00;;;;;;4964092;28;20066;-77
2023/05/19 08:43:46;;;;;;;6.22;3.72;;;26.50;46.90;;;;;;4964028;28;20044;-77
2023/05/19 08:46:15;;;;;;;7.40;3.15;;;26.60;47.00;;;;;;4948551;28;20076;-76
2023/05/19 08:48:42;;;;;;;4.00;2.72;;;26.50;46.90;;;;;;4958015;28;20035;-77
2023/05/19 08:51:36;;;;;;;4.97;2.95;;;26.60;47.00;;;;;;4959929;28;20042;-79
2023/05/19 08:54:13;;;;;;;4.22;3.38;;;26.60;46.80;;;;;;4963795;28;20093;-79
2023/05/19 08:56:40;;;;;;;6.38;3.10;;;26.60;46.80;;;;;;4959473;28;20366;-78
2023/05/19 08:59:07;;;;;;;3.88;2.80;;;26.60;46.80;;;;;;4966133;28;20554;-78
2023/05/19 09:01:33;;;;;;;3.42;2.90;;;26.70;46.90;;;;;;4955981;28;20039;-79
2023/05/19 09:03:59;;;;;;;3.28;2.58;;;26.70;46.90;;;;;;4956841;28;20045;-79
2023/05/19 09:06:26;;;;;;;3.33;2.55;;;26.70;46.90;;;;;;4962205;28;20046;-78
2023/05/19 09:08:55;;;;;;;3.38;2.45;;;26.70;46.90;;;;;;4946438;28;20057;-78
2023/05/19 09:11:21;;;;;;;5.75;3.20;;;26.80;47.00;;;;;;4973363;28;20046;-77
2023/05/19 09:13:48;;;;;;;2.90;2.40;;;26.80;47.00;;;;;;4961371;28;20438;-78
2023/05/19 09:16:15;;;;;;;5.53;3.10;;;26.80;46.90;;;;;;4960969;28;20796;-80
2023/05/19 09:18:54;;;;;;;3.60;2.90;;;26.80;46.80;;;;;;4959647;28;20042;-79
2023/05/19 09:21:29;;;;;;;3.22;2.50;;;26.80;46.70;;;;;;4955179;28;20069;-80
2023/05/19 09:23:57;;;;;;;4.43;2.70;;;26.80;46.70;;;;;;4960759;28;20334;-80
2023/05/19 09:26:24;;;;;;;3.83;3.13;;;26.80;46.70;;;;;;4967399;28;20042;-79
2023/05/19 09:28:50;;;;;;;4.35;3.05;;;26.80;47.30;;;;;;4959242;28;20233;-82
2023/05/19 09:31:16;;;;;;;5.55;2.50;;;26.80;46.70;;;;;;4956988;28;20607;-80
2023/05/19 09:33:42;;;;;;;3.47;2.72;;;26.80;46.80;;;;;;4968402;28;20292;-80
2023/05/19 09:36:09;;;;;;;7.63;3.90;;;26.80;46.80;;;;;;4942209;28;20043;-79
2023/05/19 09:38:37;;;;;;;4.25;2.97;;;26.80;46.70;;;;;;4956995;28;20031;-79
2023/05/19 09:41:04;;;;;;;3.72;2.65;;;26.80;46.70;;;;;;4960833;28;20339;-80
2023/05/19 09:43:33;;;;;;;3.65;2.53;;;26.80;46.70;;;;;;4962549;28;20047;-79
2023/05/19 09:46:06;;;;;;;4.97;3.05;;;26.80;46.80;;;;;;4958617;28;20101;-80
2023/05/19 09:48:33;;;;;;;3.53;2.80;;;26.80;46.80;;;;;;4968160;28;20042;-79
2023/05/19 09:51:01;;;;;;;4.70;3.10;;;26.80;46.80;;;;;;4956812;28;20050;-80
2023/05/19 09:53:29;;;;;;;5.28;2.75;;;26.80;46.90;;;;;;4965320;28;20556;-80
2023/05/19 09:55:59;;;;;;;4.30;3.10;;;26.80;46.80;;;;;;4958259;28;20556;-78
2023/05/19 09:58:25;;;;;;;3.22;2.92;;;26.90;46.80;;;;;;4964889;28;20299;-79
2023/05/19 10:00:53;;;;;;;4.05;2.70;;;26.90;46.60;;;;;;4958422;28;20027;-78
2023/05/19 10:03:23;;;;;;;3.25;2.50;;;26.90;46.60;;;;;;4972783;28;20094;-78
2023/05/19 10:05:49;;;;;;;3.25;2.85;;;26.90;46.40;;;;;;4970089;28;20137;-80
2023/05/19 10:08:16;;;;;;;4.82;3.33;;;27.00;46.50;;;;;;4958949;28;20110;-78
2023/05/19 10:10:45;;;;;;;3.13;2.65;;;27.00;46.50;;;;;;4960848;28;20098;-78
2023/05/19 10:13:12;;;;;;;3.67;2.55;;;27.10;46.50;;;;;;4958902;28;20063;-78
2023/05/19 10:15:41;;;;;;;3.15;2.28;;;27.20;46.50;;;;;;4965774;28;20039;-79
2023/05/19 10:18:11;;;;;;;3.63;2.35;;;27.30;46.50;;;;;;4957549;28;20039;-78
2023/05/19 10:20:38;;;;;;;3.55;3.03;;;27.30;46.30;;;;;;4965481;28;20031;-78
2023/05/19 10:23:04;;;;;;;2.83;2.58;;;27.30;46.20;;;;;;4950762;28;20035;-79
2023/05/19 10:25:33;;;;;;;2.92;2.47;;;27.40;46.20;;;;;;4943937;28;20491;-78
2023/05/19 10:28:01;;;;;;;2.90;2.22;;;27.50;46.10;;;;;;4961983;28;20065;-78
2023/05/19 10:30:36;;;;;;;2.28;2.00;;;27.70;46.60;;;;;;4951642;28;20050;-77
2023/05/19 10:33:06;;;;;;;3.22;2.35;;;27.80;45.90;;;;;;4961045;28;20050;-79
2023/05/19 10:35:49;;;;;;;4.03;2.40;;;28.00;45.80;;;;;;4949130;28;20120;-77
2023/05/19 10:38:49;;;;;;;2.83;2.20;;;28.10;45.50;;;;;;4957491;28;20328;-77
2023/05/19 10:41:43;;;;;;;2.72;2.13;;;28.30;45.40;;;;;;4957758;28;20129;-77
2023/05/19 10:44:26;;;;;;;3.20;2.03;;;28.50;45.30;;;;;;4957624;28;20121;-78
2023/05/19 10:46:51;;;;;;;;;;;28.60;45.10;;;;;;4961045;28;20171;-87
2023/05/19 10:49:23;;;;;;;2.20;2.00;;;28.80;45.10;;;;;;4961906;28;19911;-88
2023/05/19 10:51:53;;;;;;;3.72;2.60;;;29.00;44.90;;;;;;4957149;28;20037;-90
2023/05/19 10:54:39;;;;;;;3.95;2.53;;;29.10;44.70;;;;;;4959337;28;20273;-89
2023/05/19 10:57:07;;;;;;;3.22;2.35;;;29.10;44.30;;;;;;4967980;28;20063;-87
2023/05/19 10:59:36;;;;;;;3.53;2.17;;;29.10;44.50;;;;;;4960016;28;20431;-85
2023/05/19 11:02:06;;;;;;;3.05;2.40;;;29.10;44.40;;;;;;4959022;28;20178;-85
2023/05/19 11:04:45;;;;;;;4.57;2.90;;;29.20;44.30;;;;;;4966009;28;20477;-87
2023/05/19 11:07:19;;;;;;;2.97;2.58;;;29.30;44.00;;;;;;4957173;28;21475;-85
2023/05/19 11:09:51;;;;;;;3.50;2.67;;;29.40;43.80;;;;;;4967249;28;20490;-87
2023/05/19 11:12:22;;;;;;;3.42;2.10;;;29.50;43.70;;;;;;4955366;28;20356;-89
2023/05/19 11:14:53;;;;;;;3.55;2.47;;;29.70;43.60;;;;;;4959362;28;20035;-84
2023/05/19 11:17:22;;;;;;;5.28;3.03;;;29.80;43.40;;;;;;4960182;28;20426;-88
2023/05/19 11:19:54;;;;;;;3.08;2.42;;;29.90;43.30;;;;;;4969385;28;20043;-90
2023/05/19 11:22:25;;;;;;;4.50;2.60;;;30.10;43.10;;;;;;4963310;28;20120;-92
2023/05/19 11:24:53;;;;;;;3.15;2.55;;;30.30;43.00;;;;;;4966487;28;20232;-92
2023/05/19 11:27:33;;;;;;;2.15;1.90;;;30.40;42.90;;;;;;4962154;28;20133;-87
2023/05/19 11:30:06;;;;;;;3.40;2.35;;;30.60;42.70;;;;;;4961336;28;20038;-88
2023/05/19 11:32:34;;;;;;;4.60;2.47;;;30.80;42.60;;;;;;4966149;28;20046;-86
2023/05/19 11:35:01;;;;;;;3.63;2.63;;;30.90;42.30;;;;;;4971307;28;20027;-89
2023/05/19 11:37:33;;;;;;;3.88;2.97;;;31.10;42.10;;;;;;4963193;28;20100;-87
2023/05/19 11:40:01;;;;;;;5.07;2.85;;;31.20;41.80;;;;;;4966896;28;20039;-88
2023/05/19 11:42:33;;;;;;;3.00;2.72;;;31.20;41.60;;;;;;4956215;28;20030;-89
2023/05/19 11:45:00;;;;;;;4.97;2.90;;;31.30;41.40;;;;;;4954071;28;20027;-90
2023/05/19 11:47:26;;;;;;;3.85;2.78;;;31.50;41.40;;;;;;4974209;28;20123;-88
2023/05/19 11:49:55;;;;;;;2.50;2.30;;;31.70;41.30;;;;;;4969800;28;20038;-88
2023/05/19 11:52:26;;;;;;;3.50;2.58;;;32.00;41.10;;;;;;4968777;28;20108;-88
2023/05/19 11:54:52;;;;;;;4.05;2.65;;;32.20;40.90;;;;;;4956502;28;20031;-88
2023/05/19 11:57:19;;;;;;;2.95;2.65;;;32.30;40.70;;;;;;4968824;28;20481;-88
2023/05/19 11:59:46;;;;;;;4.25;2.60;;;32.40;40.70;;;;;;4971789;28;20045;-87
2023/05/19 12:02:27;;;;;;;5.15;3.13;;;32.40;40.50;;;;;;4961710;28;20043;-85
2023/05/19 12:04:53;;;;;;;4.32;3.10;;;32.40;40.30;;;;;;4967434;28;20117;-86
2023/05/19 12:07:23;;;;;;;3.13;2.83;;;32.50;40.40;;;;;;4979384;28;20494;-86
2023/05/19 12:09:50;;;;;;;3.53;2.70;;;32.50;40.20;;;;;;4961032;28;20062;-87
2023/05/19 12:12:19;;;;;;;3.72;2.47;;;32.50;40.10;;;;;;4961854;28;20079;-88
2023/05/19 12:14:46;;;;;;;2.40;2.20;;;32.60;40.00;;;;;;4961650;28;20097;-89
2023/05/19 12:17:14;;;;;;;2.60;2.30;;;32.70;40.10;;;;;;4959780;28;20073;-87
2023/05/19 12:19:42;;;;;;;4.07;2.70;;;32.80;40.10;;;;;;4957964;28;20157;-83
2023/05/19 12:22:09;;;;;;;2.45;2.25;;;32.90;40.10;;;;;;4953706;28;20118;-83
2023/05/19 12:24:36;;;;;;;3.53;2.53;;;32.90;40.00;;;;;;4973703;28;20144;-83
2023/05/19 12:27:12;;;;;;;2.63;2.25;;;32.90;39.90;;;;;;4959116;28;20042;-87
2023/05/19 12:29:39;;;;;;;2.78;2.17;;;33.00;39.90;;;;;;4966905;28;20097;-87
2023/05/19 12:32:07;;;;;;;3.55;2.72;;;33.10;39.90;;;;;;4959078;28;20491;-86
2023/05/19 12:34:38;;;;;;;3.03;2.40;;;33.20;39.70;;;;;;4965900;28;20456;-86
2023/05/19 12:37:04;;;;;;;2.28;2.08;;;33.30;39.50;;;;;;4964798;28;20339;-84
2023/05/19 12:39:31;;;;;;;2.75;2.22;;;33.40;39.60;;;;;;4952136;28;20031;-86
2023/05/19 12:42:06;;;;;;;2.40;2.20;;;33.60;39.60;;;;;;4959789;28;20089;-89
2023/05/19 12:44:46;;;;;;;3.10;2.20;;;33.70;39.20;;;;;;4958210;28;20126;-86
2023/05/19 12:47:14;;;;;;;4.63;2.47;;;33.90;38.90;;;;;;4958714;28;20074;-87
2023/05/19 12:49:55;;;;;;;2.40;2.20;;;33.90;38.80;;;;;;4980529;28;20071;-84
2023/05/19 12:52:24;;;;;;;1.90;1.80;;;34.00;38.80;;;;;;4961251;28;20048;-85
2023/05/19 12:55:06;;;;;;;2.38;2.15;;;34.10;38.90;;;;;;4959508;28;20030;-86
2023/05/19 12:57:39;;;;;;;2.35;1.65;;;34.30;38.80;;;;;;4961533;28;20310;-84